sensor_id;sensor_type;location;lat;lon;timestamp;P1;durP1;ratioP1;P2;durP2;ratioP2
6638;SDS011;3355;52.882;8.430;2023-07-24T00:01:49;4.60;;;3.30;;
6638;SDS011;3355;52.882;8.430;2023-07-24T00:04:15;4.73;;;3.30;;
6638;SDS011;3355;52.882;8.430;2023-07-24T00:06:43;3.73;;;3.03;;
6638;SDS011;3355;52.882;8.430;2023-07-24T00:09:10;3.50;;;3.20;;
6638;SDS011;3355;52.882;8.430;2023-07-24T00:11:37;3.60;;;3.30;;
6638;SDS011;3355;52.882;8.430;2023-07-24T00:14:04;3.73;;;3.30;;
6638;SDS011;3355;52.882;8.430;2023-07-24T00:16:30;3.80;;;3.43;;
6638;SDS011;3355;52.882;8.430;2023-07-24T00:18:57;3.87;;;3.47;;
6638;SDS011;3355;52.882;8.430;2023-07-24T00:21:24;3.80;;;2.77;;
6638;SDS011;3355;52.882;8.430;2023-07-24T00:23:52;4.13;;;3.10;;
6638;SDS011;3355;52.882;8.430;2023-07-24T00:26:19;3.33;;;2.50;;
6638;SDS011;3355;52.882;8.430;2023-07-24T00:28:46;10.23;;;3.10;;
6638;SDS011;3355;52.882;8.430;2023-07-24T00:31:12;3.00;;;2.70;;
6638;SDS011;3355;52.882;8.430;2023-07-24T00:33:39;4.00;;;3.60;;
6638;SDS011;3355;52.882;8.430;2023-07-24T00:36:06;3.93;;;3.00;;
6638;SDS011;3355;52.882;8.430;2023-07-24T00:38:32;4.03;;;2.57;;
6638;SDS011;3355;52.882;8.430;2023-07-24T00:41:01;3.67;;;3.30;;
6638;SDS011;3355;52.882;8.430;2023-07-24T00:43:28;3.50;;;2.93;;
6638;SDS011;3355;52.882;8.430;2023-07-24T00:45:55;4.40;;;3.03;;
6638;SDS011;3355;52.882;8.430;2023-07-24T00:48:22;4.03;;;3.00;;
6638;SDS011;3355;52.882;8.430;2023-07-24T00:50:49;4.30;;;3.37;;
6638;SDS011;3355;52.882;8.430;2023-07-24T00:53:17;4.10;;;3.30;;
6638;SDS011;3355;52.882;8.430;2023-07-24T00:55:44;3.53;;;3.23;;
6638;SDS011;3355;52.882;8.430;2023-07-24T00:58:12;3.47;;;3.07;;
6638;SDS011;3355;52.882;8.430;2023-07-24T01:00:39;4.63;;;3.13;;
6638;SDS011;3355;52.882;8.430;2023-07-24T01:03:06;3.47;;;2.57;;
6638;SDS011;3355;52.882;8.430;2023-07-24T01:05:33;4.53;;;2.97;;
6638;SDS011;3355;52.882;8.430;2023-07-24T01:08:00;4.70;;;3.50;;
6638;SDS011;3355;52.882;8.430;2023-07-24T01:10:27;4.70;;;3.67;;
6638;SDS011;3355;52.882;8.430;2023-07-24T01:12:55;4.90;;;3.97;;
6638;SDS011;3355;52.882;8.430;2023-07-24T01:15:29;4.17;;;3.23;;
6638;SDS011;3355;52.882;8.430;2023-07-24T01:17:59;5.13;;;3.80;;
6638;SDS011;3355;52.882;8.430;2023-07-24T01:20:28;4.73;;;3.10;;
6638;SDS011;3355;52.882;8.430;2023-07-24T01:23:04;4.90;;;4.03;;
6638;SDS011;3355;52.882;8.430;2023-07-24T01:25:55;5.03;;;3.80;;
6638;SDS011;3355;52.882;8.430;2023-07-24T01:28:22;4.60;;;3.67;;
6638;SDS011;3355;52.882;8.430;2023-07-24T01:30:49;4.33;;;3.50;;
6638;SDS011;3355;52.882;8.430;2023-07-24T01:33:16;4.70;;;4.20;;
6638;SDS011;3355;52.882;8.430;2023-07-24T01:35:43;4.20;;;3.53;;
6638;SDS011;3355;52.882;8.430;2023-07-24T01:38:11;4.40;;;3.43;;
6638;SDS011;3355;52.882;8.430;2023-07-24T01:40:38;5.30;;;4.30;;
6638;SDS011;3355;52.882;8.430;2023-07-24T01:43:07;4.17;;;3.77;;
6638;SDS011;3355;52.882;8.430;2023-07-24T01:45:33;5.50;;;3.70;;
6638;SDS011;3355;52.882;8.430;2023-07-24T01:48:01;4.30;;;3.83;;
6638;SDS011;3355;52.882;8.430;2023-07-24T01:50:29;4.00;;;3.60;;
6638;SDS011;3355;52.882;8.430;2023-07-24T01:52:56;8.30;;;4.40;;
6638;SDS011;3355;52.882;8.430;2023-07-24T01:55:23;4.37;;;3.97;;
6638;SDS011;3355;52.882;8.430;2023-07-24T01:57:50;4.83;;;4.00;;
6638;SDS011;3355;52.882;8.430;2023-07-24T02:00:20;4.20;;;3.53;;
6638;SDS011;3355;52.882;8.430;2023-07-24T02:02:46;4.30;;;3.80;;
6638;SDS011;3355;52.882;8.430;2023-07-24T02:05:13;4.60;;;3.30;;
6638;SDS011;3355;52.882;8.430;2023-07-24T02:07:40;4.80;;;3.90;;
6638;SDS011;3355;52.882;8.430;2023-07-24T02:10:07;4.83;;;4.00;;
6638;SDS011;3355;52.882;8.430;2023-07-24T02:12:35;10.70;;;5.33;;
6638;SDS011;3355;52.882;8.430;2023-07-24T02:15:01;4.30;;;3.67;;
6638;SDS011;3355;52.882;8.430;2023-07-24T02:17:30;4.70;;;3.67;;
6638;SDS011;3355;52.882;8.430;2023-07-24T02:19:58;4.20;;;3.67;;
6638;SDS011;3355;52.882;8.430;2023-07-24T02:22:24;4.83;;;4.33;;
6638;SDS011;3355;52.882;8.430;2023-07-24T02:24:51;3.63;;;3.23;;
6638;SDS011;3355;52.882;8.430;2023-07-24T02:27:24;4.30;;;3.90;;
6638;SDS011;3355;52.882;8.430;2023-07-24T02:29:52;4.80;;;4.30;;
6638;SDS011;3355;52.882;8.430;2023-07-24T02:32:19;5.07;;;4.57;;
6638;SDS011;3355;52.882;8.430;2023-07-24T02:34:49;4.60;;;3.43;;
6638;SDS011;3355;52.882;8.430;2023-07-24T02:37:16;4.77;;;3.73;;
6638;SDS011;3355;52.882;8.430;2023-07-24T02:39:43;4.93;;;4.20;;
6638;SDS011;3355;52.882;8.430;2023-07-24T02:42:10;4.70;;;4.13;;
6638;SDS011;3355;52.882;8.430;2023-07-24T02:44:37;4.10;;;3.50;;
6638;SDS011;3355;52.882;8.430;2023-07-24T02:47:04;5.20;;;4.43;;
6638;SDS011;3355;52.882;8.430;2023-07-24T02:49:31;4.50;;;3.60;;
6638;SDS011;3355;52.882;8.430;2023-07-24T02:51:59;5.47;;;4.00;;
6638;SDS011;3355;52.882;8.430;2023-07-24T02:54:27;3.70;;;3.20;;
6638;SDS011;3355;52.882;8.430;2023-07-24T02:56:54;3.73;;;3.30;;
6638;SDS011;3355;52.882;8.430;2023-07-24T02:59:21;3.93;;;3.20;;
6638;SDS011;3355;52.882;8.430;2023-07-24T03:01:49;5.70;;;3.87;;
6638;SDS011;3355;52.882;8.430;2023-07-24T03:04:16;4.07;;;3.67;;
6638;SDS011;3355;52.882;8.430;2023-07-24T03:06:43;4.10;;;3.33;;
6638;SDS011;3355;52.882;8.430;2023-07-24T03:09:11;3.40;;;2.90;;
6638;SDS011;3355;52.882;8.430;2023-07-24T03:11:37;5.13;;;3.67;;
6638;SDS011;3355;52.882;8.430;2023-07-24T03:14:04;3.40;;;3.10;;
6638;SDS011;3355;52.882;8.430;2023-07-24T03:16:31;3.53;;;2.90;;
6638;SDS011;3355;52.882;8.430;2023-07-24T03:18:58;5.20;;;3.27;;
6638;SDS011;3355;52.882;8.430;2023-07-24T03:21:25;4.60;;;3.00;;
6638;SDS011;3355;52.882;8.430;2023-07-24T03:23:52;4.40;;;2.73;;
6638;SDS011;3355;52.882;8.430;2023-07-24T03:26:21;3.80;;;3.23;;
6638;SDS011;3355;52.882;8.430;2023-07-24T03:28:47;4.90;;;3.00;;
6638;SDS011;3355;52.882;8.430;2023-07-24T03:31:14;4.40;;;2.80;;
6638;SDS011;3355;52.882;8.430;2023-07-24T03:33:42;3.70;;;3.30;;
6638;SDS011;3355;52.882;8.430;2023-07-24T03:36:09;4.37;;;3.30;;
6638;SDS011;3355;52.882;8.430;2023-07-24T03:38:37;4.83;;;3.73;;
6638;SDS011;3355;52.882;8.430;2023-07-24T03:41:04;5.23;;;3.33;;
6638;SDS011;3355;52.882;8.430;2023-07-24T03:43:32;4.13;;;3.60;;
6638;SDS011;3355;52.882;8.430;2023-07-24T03:45:58;3.93;;;3.20;;
6638;SDS011;3355;52.882;8.430;2023-07-24T03:48:25;4.27;;;3.43;;
6638;SDS011;3355;52.882;8.430;2023-07-24T03:50:57;3.30;;;2.73;;
6638;SDS011;3355;52.882;8.430;2023-07-24T03:53:24;3.83;;;3.10;;
6638;SDS011;3355;52.882;8.430;2023-07-24T03:55:51;3.53;;;2.80;;
6638;SDS011;3355;52.882;8.430;2023-07-24T03:58:18;3.37;;;3.07;;
6638;SDS011;3355;52.882;8.430;2023-07-24T04:00:46;4.20;;;2.70;;
6638;SDS011;3355;52.882;8.430;2023-07-24T04:03:13;3.60;;;2.77;;
6638;SDS011;3355;52.882;8.430;2023-07-24T04:05:39;3.43;;;3.13;;
6638;SDS011;3355;52.882;8.430;2023-07-24T04:08:06;3.23;;;2.83;;
6638;SDS011;3355;52.882;8.430;2023-07-24T04:10:33;3.77;;;3.00;;
6638;SDS011;3355;52.882;8.430;2023-07-24T04:13:00;2.90;;;2.60;;
6638;SDS011;3355;52.882;8.430;2023-07-24T04:15:27;3.53;;;2.47;;
6638;SDS011;3355;52.882;8.430;2023-07-24T04:17:55;3.90;;;3.30;;
6638;SDS011;3355;52.882;8.430;2023-07-24T04:20:23;5.73;;;2.73;;
6638;SDS011;3355;52.882;8.430;2023-07-24T04:22:49;3.77;;;3.37;;
6638;SDS011;3355;52.882;8.430;2023-07-24T04:25:16;3.30;;;2.97;;
6638;SDS011;3355;52.882;8.430;2023-07-24T04:27:43;3.47;;;3.07;;
6638;SDS011;3355;52.882;8.430;2023-07-24T04:30:10;7.20;;;3.10;;
6638;SDS011;3355;52.882;8.430;2023-07-24T04:32:37;3.90;;;3.30;;
6638;SDS011;3355;52.882;8.430;2023-07-24T04:35:06;3.67;;;3.10;;
6638;SDS011;3355;52.882;8.430;2023-07-24T04:37:33;2.80;;;2.60;;
6638;SDS011;3355;52.882;8.430;2023-07-24T04:40:00;3.17;;;2.70;;
6638;SDS011;3355;52.882;8.430;2023-07-24T04:42:27;2.90;;;2.60;;
6638;SDS011;3355;52.882;8.430;2023-07-24T04:44:53;3.73;;;3.20;;
6638;SDS011;3355;52.882;8.430;2023-07-24T04:47:21;6.43;;;3.67;;
6638;SDS011;3355;52.882;8.430;2023-07-24T04:49:47;3.97;;;3.33;;
6638;SDS011;3355;52.882;8.430;2023-07-24T04:52:15;4.80;;;3.00;;
6638;SDS011;3355;52.882;8.430;2023-07-24T04:54:42;4.23;;;3.40;;
6638;SDS011;3355;52.882;8.430;2023-07-24T04:57:09;3.17;;;2.80;;
6638;SDS011;3355;52.882;8.430;2023-07-24T04:59:35;4.10;;;2.83;;
6638;SDS011;3355;52.882;8.430;2023-07-24T05:02:04;4.80;;;3.47;;
6638;SDS011;3355;52.882;8.430;2023-07-24T05:04:31;5.73;;;3.47;;
6638;SDS011;3355;52.882;8.430;2023-07-24T05:06:58;4.00;;;3.40;;
6638;SDS011;3355;52.882;8.430;2023-07-24T05:09:26;3.27;;;2.73;;
6638;SDS011;3355;52.882;8.430;2023-07-24T05:11:54;4.20;;;3.60;;
6638;SDS011;3355;52.882;8.430;2023-07-24T05:14:21;5.20;;;3.20;;
6638;SDS011;3355;52.882;8.430;2023-07-24T05:16:48;3.50;;;3.10;;
6638;SDS011;3355;52.882;8.430;2023-07-24T05:19:14;2.83;;;2.53;;
6638;SDS011;3355;52.882;8.430;2023-07-24T05:21:41;6.30;;;2.93;;
6638;SDS011;3355;52.882;8.430;2023-07-24T05:24:08;3.67;;;3.17;;
6638;SDS011;3355;52.882;8.430;2023-07-24T05:26:36;5.03;;;3.63;;
6638;SDS011;3355;52.882;8.430;2023-07-24T05:29:03;3.77;;;3.00;;
6638;SDS011;3355;52.882;8.430;2023-07-24T05:31:31;4.13;;;3.57;;
6638;SDS011;3355;52.882;8.430;2023-07-24T05:34:00;4.23;;;3.60;;
6638;SDS011;3355;52.882;8.430;2023-07-24T05:36:28;3.90;;;3.37;;
6638;SDS011;3355;52.882;8.430;2023-07-24T05:38:55;4.30;;;3.90;;
6638;SDS011;3355;52.882;8.430;2023-07-24T05:41:22;3.97;;;3.57;;
6638;SDS011;3355;52.882;8.430;2023-07-24T05:43:51;4.43;;;3.97;;
6638;SDS011;3355;52.882;8.430;2023-07-24T05:46:17;4.20;;;3.80;;
6638;SDS011;3355;52.882;8.430;2023-07-24T05:48:45;6.13;;;3.30;;
6638;SDS011;3355;52.882;8.430;2023-07-24T05:51:11;3.80;;;3.40;;
6638;SDS011;3355;52.882;8.430;2023-07-24T05:53:38;5.53;;;4.20;;
6638;SDS011;3355;52.882;8.430;2023-07-24T05:56:05;4.83;;;3.70;;
6638;SDS011;3355;52.882;8.430;2023-07-24T05:58:32;4.30;;;3.90;;
6638;SDS011;3355;52.882;8.430;2023-07-24T06:01:00;3.93;;;3.50;;
6638;SDS011;3355;52.882;8.430;2023-07-24T06:03:27;4.63;;;4.17;;
6638;SDS011;3355;52.882;8.430;2023-07-24T06:05:54;6.70;;;3.80;;
6638;SDS011;3355;52.882;8.430;2023-07-24T06:08:21;4.10;;;3.40;;
6638;SDS011;3355;52.882;8.430;2023-07-24T06:10:48;5.77;;;4.40;;
6638;SDS011;3355;52.882;8.430;2023-07-24T06:13:15;4.83;;;3.60;;
6638;SDS011;3355;52.882;8.430;2023-07-24T06:15:43;3.97;;;3.33;;
6638;SDS011;3355;52.882;8.430;2023-07-24T06:18:11;5.80;;;3.43;;
6638;SDS011;3355;52.882;8.430;2023-07-24T06:20:38;6.87;;;4.03;;
6638;SDS011;3355;52.882;8.430;2023-07-24T06:23:04;4.57;;;4.13;;
6638;SDS011;3355;52.882;8.430;2023-07-24T06:25:31;7.43;;;3.80;;
6638;SDS011;3355;52.882;8.430;2023-07-24T06:27:58;5.47;;;4.50;;
6638;SDS011;3355;52.882;8.430;2023-07-24T06:30:25;4.57;;;4.17;;
6638;SDS011;3355;52.882;8.430;2023-07-24T06:32:51;5.83;;;4.13;;
6638;SDS011;3355;52.882;8.430;2023-07-24T06:35:20;4.60;;;3.90;;
6638;SDS011;3355;52.882;8.430;2023-07-24T06:37:46;5.90;;;4.70;;
6638;SDS011;3355;52.882;8.430;2023-07-24T06:40:13;6.17;;;4.30;;
6638;SDS011;3355;52.882;8.430;2023-07-24T06:42:40;6.00;;;4.90;;
6638;SDS011;3355;52.882;8.430;2023-07-24T06:45:07;4.77;;;4.33;;
6638;SDS011;3355;52.882;8.430;2023-07-24T06:47:35;5.30;;;4.80;;
6638;SDS011;3355;52.882;8.430;2023-07-24T06:50:01;6.57;;;5.40;;
6638;SDS011;3355;52.882;8.430;2023-07-24T06:52:31;4.70;;;4.20;;
6638;SDS011;3355;52.882;8.430;2023-07-24T06:54:57;5.73;;;5.10;;
6638;SDS011;3355;52.882;8.430;2023-07-24T06:57:24;5.67;;;5.07;;
6638;SDS011;3355;52.882;8.430;2023-07-24T06:59:51;5.80;;;4.87;;
6638;SDS011;3355;52.882;8.430;2023-07-24T07:02:17;5.10;;;4.70;;
6638;SDS011;3355;52.882;8.430;2023-07-24T07:04:45;5.67;;;4.37;;
6638;SDS011;3355;52.882;8.430;2023-07-24T07:07:11;5.20;;;4.70;;
6638;SDS011;3355;52.882;8.430;2023-07-24T07:09:40;6.27;;;5.20;;
6638;SDS011;3355;52.882;8.430;2023-07-24T07:12:07;8.43;;;5.20;;
6638;SDS011;3355;52.882;8.430;2023-07-24T07:14:34;5.33;;;4.60;;
6638;SDS011;3355;52.882;8.430;2023-07-24T07:17:01;5.50;;;4.77;;
6638;SDS011;3355;52.882;8.430;2023-07-24T07:19:28;5.70;;;5.10;;
6638;SDS011;3355;52.882;8.430;2023-07-24T07:21:55;6.03;;;5.43;;
6638;SDS011;3355;52.882;8.430;2023-07-24T07:24:22;6.00;;;5.30;;
6638;SDS011;3355;52.882;8.430;2023-07-24T07:26:51;7.40;;;5.70;;
6638;SDS011;3355;52.882;8.430;2023-07-24T07:29:17;7.73;;;5.83;;
6638;SDS011;3355;52.882;8.430;2023-07-24T07:31:44;6.30;;;5.70;;
6638;SDS011;3355;52.882;8.430;2023-07-24T07:34:11;7.20;;;6.50;;
6638;SDS011;3355;52.882;8.430;2023-07-24T07:36:38;6.10;;;5.60;;
6638;SDS011;3355;52.882;8.430;2023-07-24T07:39:04;7.17;;;6.47;;
6638;SDS011;3355;52.882;8.430;2023-07-24T07:41:31;6.43;;;4.93;;
6638;SDS011;3355;52.882;8.430;2023-07-24T07:43:59;5.60;;;5.07;;
6638;SDS011;3355;52.882;8.430;2023-07-24T07:46:26;6.10;;;5.50;;
6638;SDS011;3355;52.882;8.430;2023-07-24T07:48:53;6.77;;;6.17;;
6638;SDS011;3355;52.882;8.430;2023-07-24T07:51:19;6.20;;;5.60;;
6638;SDS011;3355;52.882;8.430;2023-07-24T07:53:46;7.27;;;6.57;;
6638;SDS011;3355;52.882;8.430;2023-07-24T07:56:13;7.03;;;6.33;;
6638;SDS011;3355;52.882;8.430;2023-07-24T07:58:40;7.53;;;6.77;;
6638;SDS011;3355;52.882;8.430;2023-07-24T08:01:08;6.97;;;6.27;;
6638;SDS011;3355;52.882;8.430;2023-07-24T08:03:35;7.70;;;7.00;;
6638;SDS011;3355;52.882;8.430;2023-07-24T08:06:02;6.83;;;6.13;;
6638;SDS011;3355;52.882;8.430;2023-07-24T08:08:29;6.80;;;6.10;;
6638;SDS011;3355;52.882;8.430;2023-07-24T08:10:55;6.23;;;5.60;;
6638;SDS011;3355;52.882;8.430;2023-07-24T08:13:22;7.10;;;6.40;;
6638;SDS011;3355;52.882;8.430;2023-07-24T08:15:49;7.07;;;6.37;;
6638;SDS011;3355;52.882;8.430;2023-07-24T08:18:17;6.57;;;5.97;;
6638;SDS011;3355;52.882;8.430;2023-07-24T08:20:44;5.67;;;5.17;;
6638;SDS011;3355;52.882;8.430;2023-07-24T08:23:11;5.50;;;5.00;;
6638;SDS011;3355;52.882;8.430;2023-07-24T08:25:38;7.83;;;5.10;;
6638;SDS011;3355;52.882;8.430;2023-07-24T08:28:05;5.10;;;4.60;;
6638;SDS011;3355;52.882;8.430;2023-07-24T08:30:32;5.83;;;4.87;;
6638;SDS011;3355;52.882;8.430;2023-07-24T08:33:00;4.90;;;4.40;;
6638;SDS011;3355;52.882;8.430;2023-07-24T08:35:28;4.00;;;3.70;;
6638;SDS011;3355;52.882;8.430;2023-07-24T08:37:55;5.10;;;4.60;;
6638;SDS011;3355;52.882;8.430;2023-07-24T08:40:22;4.40;;;4.00;;
6638;SDS011;3355;52.882;8.430;2023-07-24T08:42:49;7.07;;;4.37;;
6638;SDS011;3355;52.882;8.430;2023-07-24T08:45:21;3.90;;;3.50;;
6638;SDS011;3355;52.882;8.430;2023-07-24T08:47:48;5.17;;;3.60;;
6638;SDS011;3355;52.882;8.430;2023-07-24T08:50:17;3.43;;;3.00;;
6638;SDS011;3355;52.882;8.430;2023-07-24T08:52:45;4.23;;;3.83;;
6638;SDS011;3355;52.882;8.430;2023-07-24T08:55:12;4.97;;;3.93;;
6638;SDS011;3355;52.882;8.430;2023-07-24T08:57:39;4.70;;;4.30;;
6638;SDS011;3355;52.882;8.430;2023-07-24T09:00:06;4.40;;;4.00;;
6638;SDS011;3355;52.882;8.430;2023-07-24T09:02:34;4.73;;;4.23;;
6638;SDS011;3355;52.882;8.430;2023-07-24T09:05:02;5.67;;;4.70;;
6638;SDS011;3355;52.882;8.430;2023-07-24T09:07:30;5.90;;;5.30;;
6638;SDS011;3355;52.882;8.430;2023-07-24T09:09:58;7.67;;;5.40;;
6638;SDS011;3355;52.882;8.430;2023-07-24T09:12:25;5.77;;;5.20;;
6638;SDS011;3355;52.882;8.430;2023-07-24T09:15:00;6.57;;;5.87;;
6638;SDS011;3355;52.882;8.430;2023-07-24T09:17:28;6.03;;;5.50;;
6638;SDS011;3355;52.882;8.430;2023-07-24T09:19:55;5.67;;;5.10;;
6638;SDS011;3355;52.882;8.430;2023-07-24T09:22:23;5.33;;;4.80;;
6638;SDS011;3355;52.882;8.430;2023-07-24T09:24:52;6.47;;;5.87;;
6638;SDS011;3355;52.882;8.430;2023-07-24T09:27:24;6.40;;;5.10;;
6638;SDS011;3355;52.882;8.430;2023-07-24T09:29:51;6.07;;;5.47;;
6638;SDS011;3355;52.882;8.430;2023-07-24T09:32:19;5.90;;;5.40;;
6638;SDS011;3355;52.882;8.430;2023-07-24T09:34:47;6.30;;;5.80;;
6638;SDS011;3355;52.882;8.430;2023-07-24T09:37:26;5.87;;;5.27;;
6638;SDS011;3355;52.882;8.430;2023-07-24T09:39:53;8.60;;;6.07;;
6638;SDS011;3355;52.882;8.430;2023-07-24T09:42:31;6.27;;;5.53;;
6638;SDS011;3355;52.882;8.430;2023-07-24T09:44:58;5.07;;;4.57;;
6638;SDS011;3355;52.882;8.430;2023-07-24T09:47:25;4.97;;;4.57;;
6638;SDS011;3355;52.882;8.430;2023-07-24T09:49:52;4.77;;;4.37;;
6638;SDS011;3355;52.882;8.430;2023-07-24T09:52:19;5.83;;;5.23;;
6638;SDS011;3355;52.882;8.430;2023-07-24T09:54:49;5.10;;;4.60;;
6638;SDS011;3355;52.882;8.430;2023-07-24T09:57:22;6.57;;;5.30;;
6638;SDS011;3355;52.882;8.430;2023-07-24T09:59:50;9.77;;;6.30;;
6638;SDS011;3355;52.882;8.430;2023-07-24T10:02:18;6.40;;;5.80;;
6638;SDS011;3355;52.882;8.430;2023-07-24T10:04:45;6.30;;;5.70;;
6638;SDS011;3355;52.882;8.430;2023-07-24T10:07:13;6.20;;;5.60;;
6638;SDS011;3355;52.882;8.430;2023-07-24T10:09:40;7.40;;;6.60;;
6638;SDS011;3355;52.882;8.430;2023-07-24T10:12:08;8.20;;;6.40;;
6638;SDS011;3355;52.882;8.430;2023-07-24T10:14:35;6.80;;;6.10;;
6638;SDS011;3355;52.882;8.430;2023-07-24T10:17:04;6.50;;;5.67;;
6638;SDS011;3355;52.882;8.430;2023-07-24T10:19:35;7.27;;;6.57;;
6638;SDS011;3355;52.882;8.430;2023-07-24T10:22:03;6.67;;;6.07;;
6638;SDS011;3355;52.882;8.430;2023-07-24T10:24:30;6.50;;;5.90;;
6638;SDS011;3355;52.882;8.430;2023-07-24T10:26:57;9.07;;;6.67;;
6638;SDS011;3355;52.882;8.430;2023-07-24T10:29:23;6.47;;;5.87;;
6638;SDS011;3355;52.882;8.430;2023-07-24T10:31:54;6.00;;;5.50;;
6638;SDS011;3355;52.882;8.430;2023-07-24T10:34:22;7.30;;;6.67;;
6638;SDS011;3355;52.882;8.430;2023-07-24T10:36:50;6.90;;;6.20;;
6638;SDS011;3355;52.882;8.430;2023-07-24T10:39:17;6.27;;;5.67;;
6638;SDS011;3355;52.882;8.430;2023-07-24T10:41:45;6.57;;;5.97;;
6638;SDS011;3355;52.882;8.430;2023-07-24T10:44:12;5.80;;;5.20;;
6638;SDS011;3355;52.882;8.430;2023-07-24T10:46:40;6.13;;;5.57;;
6638;SDS011;3355;52.882;8.430;2023-07-24T10:49:07;5.83;;;5.20;;
6638;SDS011;3355;52.882;8.430;2023-07-24T10:51:35;5.70;;;5.07;;
6638;SDS011;3355;52.882;8.430;2023-07-24T10:54:03;5.60;;;5.10;;
6638;SDS011;3355;52.882;8.430;2023-07-24T10:56:31;5.53;;;4.97;;
6638;SDS011;3355;52.882;8.430;2023-07-24T10:59:02;6.30;;;5.03;;
6638;SDS011;3355;52.882;8.430;2023-07-24T11:01:29;6.60;;;4.83;;
6638;SDS011;3355;52.882;8.430;2023-07-24T11:03:56;5.37;;;4.87;;
6638;SDS011;3355;52.882;8.430;2023-07-24T11:06:23;5.23;;;4.67;;
6638;SDS011;3355;52.882;8.430;2023-07-24T11:08:52;5.93;;;5.40;;
6638;SDS011;3355;52.882;8.430;2023-07-24T11:11:21;8.70;;;5.53;;
6638;SDS011;3355;52.882;8.430;2023-07-24T11:13:48;6.00;;;5.03;;
6638;SDS011;3355;52.882;8.430;2023-07-24T11:16:15;6.03;;;4.97;;
6638;SDS011;3355;52.882;8.430;2023-07-24T11:18:45;5.27;;;4.77;;
6638;SDS011;3355;52.882;8.430;2023-07-24T11:21:12;6.63;;;5.27;;
6638;SDS011;3355;52.882;8.430;2023-07-24T11:23:44;5.83;;;5.10;;
6638;SDS011;3355;52.882;8.430;2023-07-24T11:26:13;4.83;;;4.33;;
6638;SDS011;3355;52.882;8.430;2023-07-24T11:28:40;5.13;;;4.47;;
6638;SDS011;3355;52.882;8.430;2023-07-24T11:31:07;4.77;;;4.30;;
6638;SDS011;3355;52.882;8.430;2023-07-24T11:33:34;4.73;;;4.33;;
6638;SDS011;3355;52.882;8.430;2023-07-24T11:36:01;4.93;;;4.27;;
6638;SDS011;3355;52.882;8.430;2023-07-24T11:38:28;5.00;;;4.53;;
6638;SDS011;3355;52.882;8.430;2023-07-24T11:40:55;5.93;;;4.50;;
6638;SDS011;3355;52.882;8.430;2023-07-24T11:43:23;6.50;;;5.57;;
6638;SDS011;3355;52.882;8.430;2023-07-24T11:45:51;6.23;;;5.63;;
6638;SDS011;3355;52.882;8.430;2023-07-24T11:48:19;5.37;;;4.87;;
6638;SDS011;3355;52.882;8.430;2023-07-24T11:50:47;5.93;;;5.33;;
6638;SDS011;3355;52.882;8.430;2023-07-24T11:53:21;6.73;;;6.03;;
6638;SDS011;3355;52.882;8.430;2023-07-24T11:55:49;7.00;;;6.30;;
6638;SDS011;3355;52.882;8.430;2023-07-24T11:58:16;6.00;;;5.07;;
6638;SDS011;3355;52.882;8.430;2023-07-24T12:00:45;6.57;;;5.97;;
6638;SDS011;3355;52.882;8.430;2023-07-24T12:03:12;6.47;;;5.20;;
6638;SDS011;3355;52.882;8.430;2023-07-24T12:05:39;6.03;;;5.43;;
6638;SDS011;3355;52.882;8.430;2023-07-24T12:08:06;5.80;;;5.30;;
6638;SDS011;3355;52.882;8.430;2023-07-24T12:10:35;5.73;;;4.90;;
6638;SDS011;3355;52.882;8.430;2023-07-24T12:13:03;5.97;;;5.37;;
6638;SDS011;3355;52.882;8.430;2023-07-24T12:15:30;6.67;;;5.70;;
6638;SDS011;3355;52.882;8.430;2023-07-24T12:17:59;5.37;;;4.87;;
6638;SDS011;3355;52.882;8.430;2023-07-24T12:20:26;5.40;;;4.90;;
6638;SDS011;3355;52.882;8.430;2023-07-24T12:22:53;5.97;;;4.83;;
6638;SDS011;3355;52.882;8.430;2023-07-24T12:25:20;7.13;;;5.90;;
6638;SDS011;3355;52.882;8.430;2023-07-24T12:27:47;5.90;;;5.33;;
6638;SDS011;3355;52.882;8.430;2023-07-24T12:30:14;6.10;;;5.50;;
6638;SDS011;3355;52.882;8.430;2023-07-24T12:32:41;8.03;;;5.33;;
6638;SDS011;3355;52.882;8.430;2023-07-24T12:35:10;5.83;;;5.23;;
6638;SDS011;3355;52.882;8.430;2023-07-24T12:37:37;6.47;;;5.87;;
6638;SDS011;3355;52.882;8.430;2023-07-24T12:40:06;5.77;;;5.20;;
6638;SDS011;3355;52.882;8.430;2023-07-24T12:42:34;4.83;;;4.33;;
6638;SDS011;3355;52.882;8.430;2023-07-24T12:45:00;6.17;;;4.43;;
6638;SDS011;3355;52.882;8.430;2023-07-24T12:47:28;5.50;;;4.90;;
6638;SDS011;3355;52.882;8.430;2023-07-24T12:49:55;6.13;;;4.83;;
6638;SDS011;3355;52.882;8.430;2023-07-24T12:52:25;5.53;;;5.03;;
6638;SDS011;3355;52.882;8.430;2023-07-24T12:54:52;5.30;;;4.80;;
6638;SDS011;3355;52.882;8.430;2023-07-24T12:57:19;5.50;;;4.37;;
6638;SDS011;3355;52.882;8.430;2023-07-24T12:59:46;4.23;;;3.83;;
6638;SDS011;3355;52.882;8.430;2023-07-24T13:02:12;6.27;;;5.50;;
6638;SDS011;3355;52.882;8.430;2023-07-24T13:04:39;4.97;;;4.30;;
6638;SDS011;3355;52.882;8.430;2023-07-24T13:07:06;5.83;;;4.30;;
6638;SDS011;3355;52.882;8.430;2023-07-24T13:09:34;4.60;;;4.20;;
6638;SDS011;3355;52.882;8.430;2023-07-24T13:12:01;4.80;;;4.07;;
6638;SDS011;3355;52.882;8.430;2023-07-24T13:14:27;5.30;;;4.70;;
6638;SDS011;3355;52.882;8.430;2023-07-24T13:16:54;5.73;;;4.87;;
6638;SDS011;3355;52.882;8.430;2023-07-24T13:19:21;5.13;;;4.63;;
6638;SDS011;3355;52.882;8.430;2023-07-24T13:21:48;4.70;;;4.20;;
6638;SDS011;3355;52.882;8.430;2023-07-24T13:24:14;5.20;;;4.70;;
6638;SDS011;3355;52.882;8.430;2023-07-24T13:26:42;5.17;;;4.23;;
6638;SDS011;3355;52.882;8.430;2023-07-24T13:29:09;5.63;;;4.43;;
6638;SDS011;3355;52.882;8.430;2023-07-24T13:31:36;6.40;;;4.50;;
6638;SDS011;3355;52.882;8.430;2023-07-24T13:34:05;6.30;;;5.20;;
6638;SDS011;3355;52.882;8.430;2023-07-24T13:36:32;4.93;;;4.20;;
6638;SDS011;3355;52.882;8.430;2023-07-24T13:38:59;5.80;;;5.20;;
6638;SDS011;3355;52.882;8.430;2023-07-24T13:41:25;5.10;;;4.53;;
6638;SDS011;3355;52.882;8.430;2023-07-24T13:43:53;7.30;;;5.50;;
6638;SDS011;3355;52.882;8.430;2023-07-24T13:46:20;5.43;;;4.93;;
6638;SDS011;3355;52.882;8.430;2023-07-24T13:48:47;4.93;;;4.43;;
6638;SDS011;3355;52.882;8.430;2023-07-24T13:51:14;5.43;;;4.73;;
6638;SDS011;3355;52.882;8.430;2023-07-24T13:53:40;6.13;;;4.00;;
6638;SDS011;3355;52.882;8.430;2023-07-24T13:56:07;5.23;;;4.17;;
6638;SDS011;3355;52.882;8.430;2023-07-24T13:58:34;4.00;;;3.60;;
6638;SDS011;3355;52.882;8.430;2023-07-24T14:01:03;4.53;;;4.13;;
6638;SDS011;3355;52.882;8.430;2023-07-24T14:03:32;4.10;;;3.70;;
6638;SDS011;3355;52.882;8.430;2023-07-24T14:05:59;4.10;;;3.50;;
6638;SDS011;3355;52.882;8.430;2023-07-24T14:08:25;4.33;;;3.80;;
6638;SDS011;3355;52.882;8.430;2023-07-24T14:10:52;6.50;;;4.33;;
6638;SDS011;3355;52.882;8.430;2023-07-24T14:13:19;5.17;;;4.67;;
6638;SDS011;3355;52.882;8.430;2023-07-24T14:15:46;4.93;;;4.37;;
6638;SDS011;3355;52.882;8.430;2023-07-24T14:18:14;4.60;;;4.13;;
6638;SDS011;3355;52.882;8.430;2023-07-24T14:20:41;5.63;;;4.27;;
6638;SDS011;3355;52.882;8.430;2023-07-24T14:23:09;6.80;;;4.20;;
6638;SDS011;3355;52.882;8.430;2023-07-24T14:25:36;4.03;;;3.40;;
6638;SDS011;3355;52.882;8.430;2023-07-24T14:28:02;4.40;;;3.90;;
6638;SDS011;3355;52.882;8.430;2023-07-24T14:30:29;4.30;;;3.30;;
6638;SDS011;3355;52.882;8.430;2023-07-24T14:32:56;4.20;;;3.80;;
6638;SDS011;3355;52.882;8.430;2023-07-24T14:35:24;4.00;;;3.60;;
6638;SDS011;3355;52.882;8.430;2023-07-24T14:37:51;4.93;;;3.80;;
6638;SDS011;3355;52.882;8.430;2023-07-24T14:40:18;4.20;;;3.43;;
6638;SDS011;3355;52.882;8.430;2023-07-24T14:42:46;4.80;;;4.30;;
6638;SDS011;3355;52.882;8.430;2023-07-24T14:45:12;5.13;;;4.30;;
6638;SDS011;3355;52.882;8.430;2023-07-24T14:47:39;5.47;;;3.60;;
6638;SDS011;3355;52.882;8.430;2023-07-24T14:50:06;3.60;;;3.20;;
6638;SDS011;3355;52.882;8.430;2023-07-24T14:52:34;4.00;;;3.60;;
6638;SDS011;3355;52.882;8.430;2023-07-24T14:55:03;4.40;;;4.00;;
6638;SDS011;3355;52.882;8.430;2023-07-24T14:57:30;4.50;;;4.00;;
6638;SDS011;3355;52.882;8.430;2023-07-24T14:59:57;5.27;;;4.77;;
6638;SDS011;3355;52.882;8.430;2023-07-24T15:02:25;5.23;;;4.43;;
6638;SDS011;3355;52.882;8.430;2023-07-24T15:04:52;4.33;;;3.63;;
6638;SDS011;3355;52.882;8.430;2023-07-24T15:07:19;4.33;;;3.30;;
6638;SDS011;3355;52.882;8.430;2023-07-24T15:09:47;4.50;;;4.10;;
6638;SDS011;3355;52.882;8.430;2023-07-24T15:12:14;4.20;;;3.80;;
6638;SDS011;3355;52.882;8.430;2023-07-24T15:14:41;4.87;;;4.17;;
6638;SDS011;3355;52.882;8.430;2023-07-24T15:17:07;4.67;;;4.27;;